Nearby METAR Reports

 

KLEX - Lexington, Kentucky, USA
Distance from station: WNW 7mi, 11km
Updated: Sat, 18-Aug-2018 3:54am EDT
Few Clouds
Few Clouds
 Wind from SSW
Wind: SSW 5 mph , 7 km/h
Temperature: 73°F , 23°C
Dew Point: 72°F , 22°C
Humidity: 94%
Barometer: 30.00 inHg , 1015.9 hPa
Clouds: Few Clouds
Visibility: 8 miles , 13 km
Cloud details: Few Clouds 4800 ft
2018/08/18 07:54 KLEX 180754Z 21004KT 8SM FEW048 23/22 A3000 RMK AO2 SLP148 T02280217
KFFT - Frankfort, Kentucky, USA
Distance from station: WNW 26mi, 42km
Updated: Sat, 18-Aug-2018 3:53am EDT
Mostly cloudy
Mostly cloudy
 Wind from calm
Wind: Calm
Temperature: 73°F , 23°C
Dew Point: 72°F , 22°C
Humidity: 94%
Barometer: 29.98 inHg , 1015.2 hPa
Clouds: Mostly cloudy
Visibility: 10 miles , 16 km
Cloud details: Partly cloudy 3300 ft
Partly cloudy 4600 ft
Mostly cloudy 6000 ft
2018/08/18 07:53 KFFT 180753Z AUTO 00000KT 10SM SCT033 SCT046 BKN060 23/22 A2998 RMK AO2 RAB0654E40 SLP142 P0018 T02280217
 
KIOB - Mount Sterling, Kentucky, USA
Distance from station: E 27mi, 44km
Updated: Sat, 18-Aug-2018 4:15am EDT
Clear
Clear
 Wind from WSW
Wind: WSW 5 mph , 7 km/h
Temperature: 72°F , 22°C
Dew Point: 70°F , 21°C
Humidity: 94%
Barometer: 30.02 inHg , 1016.6 hPa
Clouds: Clear
Visibility: 10 miles , 16 km
2018/08/18 08:15 KIOB 180815Z AUTO 24004KT 10SM CLR 22/21 A3002 RMK AO2
KDVK - Danville, Kentucky, USA
Distance from station: SSW 33mi, 53km
Updated: Sat, 18-Aug-2018 4:15am EDT
Clear
Clear
 Wind from SW
Wind: SW 7 mph , 11 km/h
Temperature: 72°F , 22°C
Dew Point: 70°F , 21°C
Humidity: 94%
Barometer: 30.02 inHg , 1016.6 hPa
Clouds: Clear
Visibility: 10 miles , 16 km
2018/08/18 08:15 KDVK 180815Z AUTO 23006KT 10SM CLR 22/21 A3002 RMK AO2